sensor_id;sensor_type;location;lat;lon;timestamp;pressure;altitude;pressure_sealevel;temperature;humidity
66273;BME280;58450;52.150;4.466;2022-11-15T00:01:07;100761.38;;;6.57;100.00
66273;BME280;58450;52.150;4.466;2022-11-15T00:03:36;100751.69;;;6.56;100.00
66273;BME280;58450;52.150;4.466;2022-11-15T00:06:04;100761.38;;;6.57;100.00
66273;BME280;58450;52.150;4.466;2022-11-15T00:08:33;100757.84;;;6.56;100.00
66273;BME280;58450;52.150;4.466;2022-11-15T00:11:01;100753.16;;;6.50;100.00
66273;BME280;58450;52.150;4.466;2022-11-15T00:13:30;100750.47;;;6.50;100.00
66273;BME280;58450;52.150;4.466;2022-11-15T00:15:58;100747.81;;;6.50;100.00
66273;BME280;58450;52.150;4.466;2022-11-15T00:18:27;100746.00;;;6.50;100.00
66273;BME280;58450;52.150;4.466;2022-11-15T00:21:03;100753.81;;;6.52;100.00
66273;BME280;58450;52.150;4.466;2022-11-15T00:23:34;100736.97;;;6.52;100.00
66273;BME280;58450;52.150;4.466;2022-11-15T00:26:02;100743.13;;;6.52;100.00
66273;BME280;58450;52.150;4.466;2022-11-15T00:28:29;100739.63;;;6.52;100.00
66273;BME280;58450;52.150;4.466;2022-11-15T00:31:00;100737.97;;;6.50;100.00
66273;BME280;58450;52.150;4.466;2022-11-15T00:33:28;100730.63;;;6.53;100.00
66273;BME280;58450;52.150;4.466;2022-11-15T00:36:00;100740.00;;;6.57;100.00
66273;BME280;58450;52.150;4.466;2022-11-15T00:38:30;100744.47;;;6.56;100.00
66273;BME280;58450;52.150;4.466;2022-11-15T00:41:02;100730.44;;;6.54;100.00
66273;BME280;58450;52.150;4.466;2022-11-15T00:43:30;100733.28;;;6.53;100.00
66273;BME280;58450;52.150;4.466;2022-11-15T00:45:58;100723.94;;;6.57;100.00
66273;BME280;58450;52.150;4.466;2022-11-15T00:48:26;100727.44;;;6.57;100.00
66273;BME280;58450;52.150;4.466;2022-11-15T00:50:53;100707.22;;;6.55;100.00
66273;BME280;58450;52.150;4.466;2022-11-15T00:53:21;100713.25;;;6.57;100.00
66273;BME280;58450;52.150;4.466;2022-11-15T00:55:48;100719.28;;;6.59;100.00
66273;BME280;58450;52.150;4.466;2022-11-15T00:58:17;100729.28;;;6.65;100.00
66273;BME280;58450;52.150;4.466;2022-11-15T01:00:44;100728.13;;;6.68;100.00
66273;BME280;58450;52.150;4.466;2022-11-15T01:03:12;100726.94;;;6.70;100.00
66273;BME280;58450;52.150;4.466;2022-11-15T01:05:39;100718.47;;;6.75;100.00
66273;BME280;58450;52.150;4.466;2022-11-15T01:08:11;100709.91;;;6.79;100.00
66273;BME280;58450;52.150;4.466;2022-11-15T01:10:40;100711.25;;;6.84;100.00
66273;BME280;58450;52.150;4.466;2022-11-15T01:13:08;100706.59;;;6.86;100.00
66273;BME280;58450;52.150;4.466;2022-11-15T01:15:40;100698.06;;;6.90;100.00
66273;BME280;58450;52.150;4.466;2022-11-15T01:18:08;100693.56;;;6.91;100.00
66273;BME280;58450;52.150;4.466;2022-11-15T01:20:39;100693.88;;;6.96;100.00
66273;BME280;58450;52.150;4.466;2022-11-15T01:23:08;100685.72;;;6.98;100.00
66273;BME280;58450;52.150;4.466;2022-11-15T01:25:35;100689.06;;;7.00;100.00
66273;BME280;58450;52.150;4.466;2022-11-15T01:28:04;100692.06;;;7.05;100.00
66273;BME280;58450;52.150;4.466;2022-11-15T01:30:31;100684.34;;;7.10;100.00
66273;BME280;58450;52.150;4.466;2022-11-15T01:33:00;100693.03;;;7.12;100.00
66273;BME280;58450;52.150;4.466;2022-11-15T01:35:28;100678.16;;;7.18;100.00
66273;BME280;58450;52.150;4.466;2022-11-15T01:37:55;100681.66;;;7.18;100.00
66273;BME280;58450;52.150;4.466;2022-11-15T01:40:22;100680.31;;;7.22;100.00
66273;BME280;58450;52.150;4.466;2022-11-15T01:42:50;100681.66;;;7.27;100.00
66273;BME280;58450;52.150;4.466;2022-11-15T01:45:17;100677.50;;;7.24;100.00
66273;BME280;58450;52.150;4.466;2022-11-15T01:47:46;100676.47;;;7.33;100.00
66273;BME280;58450;52.150;4.466;2022-11-15T01:50:22;100675.28;;;7.36;100.00
66273;BME280;58450;52.150;4.466;2022-11-15T01:52:54;100664.09;;;7.41;100.00
66273;BME280;58450;52.150;4.466;2022-11-15T01:55:24;100664.75;;;7.43;100.00
66273;BME280;58450;52.150;4.466;2022-11-15T01:57:57;100665.72;;;7.50;100.00
66273;BME280;58450;52.150;4.466;2022-11-15T02:00:30;100659.19;;;7.52;100.00
66273;BME280;58450;52.150;4.466;2022-11-15T02:02:58;100653.31;;;7.57;100.00
66273;BME280;58450;52.150;4.466;2022-11-15T02:05:28;100659.31;;;7.67;100.00
66273;BME280;58450;52.150;4.466;2022-11-15T02:07:57;100656.25;;;7.79;100.00
66273;BME280;58450;52.150;4.466;2022-11-15T02:10:27;100644.69;;;7.87;100.00
66273;BME280;58450;52.150;4.466;2022-11-15T02:12:55;100644.47;;;7.96;100.00
66273;BME280;58450;52.150;4.466;2022-11-15T02:15:31;100640.09;;;7.95;100.00
66273;BME280;58450;52.150;4.466;2022-11-15T02:18:12;100629.84;;;7.99;100.00
66273;BME280;58450;52.150;4.466;2022-11-15T02:21:15;100629.50;;;8.02;100.00
66273;BME280;58450;52.150;4.466;2022-11-15T02:24:09;100634.22;;;8.00;100.00
66273;BME280;58450;52.150;4.466;2022-11-15T02:30:23;100618.03;;;8.17;100.00
66273;BME280;58450;52.150;4.466;2022-11-15T02:32:57;100628.59;;;8.18;100.00
66273;BME280;58450;52.150;4.466;2022-11-15T02:35:34;100619.56;;;8.19;100.00
66273;BME280;58450;52.150;4.466;2022-11-15T02:38:15;100617.53;;;8.21;100.00
66273;BME280;58450;52.150;4.466;2022-11-15T02:40:53;100616.16;;;8.25;100.00
66273;BME280;58450;52.150;4.466;2022-11-15T02:43:28;100606.75;;;8.30;100.00
66273;BME280;58450;52.150;4.466;2022-11-15T02:46:22;100615.50;;;8.23;100.00
66273;BME280;58450;52.150;4.466;2022-11-15T02:49:28;100605.84;;;8.37;100.00
66273;BME280;58450;52.150;4.466;2022-11-15T02:51:58;100607.53;;;8.38;100.00
66273;BME280;58450;52.150;4.466;2022-11-15T02:54:29;100605.97;;;8.44;100.00
66273;BME280;58450;52.150;4.466;2022-11-15T02:57:01;100601.91;;;8.48;100.00
66273;BME280;58450;52.150;4.466;2022-11-15T02:59:53;100607.59;;;8.53;100.00
66273;BME280;58450;52.150;4.466;2022-11-15T03:02:55;100595.69;;;8.56;100.00
66273;BME280;58450;52.150;4.466;2022-11-15T03:05:37;100598.56;;;8.46;100.00
66273;BME280;58450;52.150;4.466;2022-11-15T03:08:18;100595.97;;;8.38;100.00
66273;BME280;58450;52.150;4.466;2022-11-15T03:11:03;100596.09;;;8.45;100.00
66273;BME280;58450;52.150;4.466;2022-11-15T03:13:38;100597.09;;;8.43;100.00
66273;BME280;58450;52.150;4.466;2022-11-15T03:16:18;100597.22;;;8.50;100.00
66273;BME280;58450;52.150;4.466;2022-11-15T03:18:58;100590.97;;;8.58;100.00
66273;BME280;58450;52.150;4.466;2022-11-15T03:21:31;100588.34;;;8.73;100.00
66273;BME280;58450;52.150;4.466;2022-11-15T03:24:05;100582.72;;;8.83;100.00
66273;BME280;58450;52.150;4.466;2022-11-15T03:26:36;100583.09;;;8.80;100.00
66273;BME280;58450;52.150;4.466;2022-11-15T03:29:11;100577.97;;;8.85;100.00
66273;BME280;58450;52.150;4.466;2022-11-15T03:31:43;100582.63;;;8.91;100.00
66273;BME280;58450;52.150;4.466;2022-11-15T03:34:20;100588.56;;;8.86;100.00
66273;BME280;58450;52.150;4.466;2022-11-15T03:36:53;100582.16;;;8.87;100.00
66273;BME280;58450;52.150;4.466;2022-11-15T03:39:21;100598.44;;;8.86;100.00
66273;BME280;58450;52.150;4.466;2022-11-15T03:41:56;100585.78;;;8.80;100.00
66273;BME280;58450;52.150;4.466;2022-11-15T03:44:35;100587.97;;;8.76;100.00
66273;BME280;58450;52.150;4.466;2022-11-15T03:47:09;100578.09;;;8.77;100.00
66273;BME280;58450;52.150;4.466;2022-11-15T03:49:46;100580.94;;;8.90;100.00
66273;BME280;58450;52.150;4.466;2022-11-15T03:52:19;100582.94;;;9.11;100.00
66273;BME280;58450;52.150;4.466;2022-11-15T03:54:49;100581.19;;;9.19;100.00
66273;BME280;58450;52.150;4.466;2022-11-15T03:57:18;100582.66;;;9.21;100.00
66273;BME280;58450;52.150;4.466;2022-11-15T03:59:45;100583.31;;;9.23;100.00
66273;BME280;58450;52.150;4.466;2022-11-15T04:02:13;100582.56;;;9.29;100.00
66273;BME280;58450;52.150;4.466;2022-11-15T04:04:41;100585.53;;;9.35;100.00
66273;BME280;58450;52.150;4.466;2022-11-15T04:07:09;100579.59;;;9.39;100.00
66273;BME280;58450;52.150;4.466;2022-11-15T04:09:37;100579.22;;;9.42;100.00
66273;BME280;58450;52.150;4.466;2022-11-15T04:12:24;100577.19;;;9.44;100.00
66273;BME280;58450;52.150;4.466;2022-11-15T04:15:01;100573.75;;;9.51;100.00
66273;BME280;58450;52.150;4.466;2022-11-15T04:17:35;100574.41;;;9.53;100.00
66273;BME280;58450;52.150;4.466;2022-11-15T04:20:05;100576.72;;;9.56;100.00
66273;BME280;58450;52.150;4.466;2022-11-15T04:22:55;100569.84;;;9.68;100.00
66273;BME280;58450;52.150;4.466;2022-11-15T04:25:40;100570.13;;;9.73;100.00
66273;BME280;58450;52.150;4.466;2022-11-15T04:28:08;100562.44;;;9.70;100.00
66273;BME280;58450;52.150;4.466;2022-11-15T04:30:35;100570.69;;;9.69;100.00
66273;BME280;58450;52.150;4.466;2022-11-15T04:33:03;100564.75;;;9.73;100.00
66273;BME280;58450;52.150;4.466;2022-11-15T04:35:31;100571.22;;;9.79;100.00
66273;BME280;58450;52.150;4.466;2022-11-15T04:38:00;100568.41;;;9.87;100.00
66273;BME280;58450;52.150;4.466;2022-11-15T04:40:28;100572.31;;;9.85;100.00
66273;BME280;58450;52.150;4.466;2022-11-15T04:42:55;100572.59;;;9.90;100.00
66273;BME280;58450;52.150;4.466;2022-11-15T04:45:23;100571.84;;;9.96;100.00
66273;BME280;58450;52.150;4.466;2022-11-15T04:47:50;100568.38;;;10.02;100.00
66273;BME280;58450;52.150;4.466;2022-11-15T04:50:18;100559.56;;;10.09;100.00
66273;BME280;58450;52.150;4.466;2022-11-15T04:52:50;100563.75;;;10.18;100.00
66273;BME280;58450;52.150;4.466;2022-11-15T04:55:21;100573.84;;;10.31;100.00
66273;BME280;58450;52.150;4.466;2022-11-15T04:57:57;100572.50;;;10.42;100.00
66273;BME280;58450;52.150;4.466;2022-11-15T05:00:26;100576.69;;;10.44;100.00
66273;BME280;58450;52.150;4.466;2022-11-15T05:02:55;100578.63;;;10.51;100.00
66273;BME280;58450;52.150;4.466;2022-11-15T05:05:40;100576.59;;;10.59;100.00
66273;BME280;58450;52.150;4.466;2022-11-15T05:08:07;100578.91;;;10.62;100.00
66273;BME280;58450;52.150;4.466;2022-11-15T05:10:36;100584.09;;;10.64;100.00
66273;BME280;58450;52.150;4.466;2022-11-15T05:13:04;100590.97;;;10.67;100.00
66273;BME280;58450;52.150;4.466;2022-11-15T05:15:31;100588.31;;;10.73;100.00
66273;BME280;58450;52.150;4.466;2022-11-15T05:17:59;100584.03;;;10.79;100.00
66273;BME280;58450;52.150;4.466;2022-11-15T05:20:27;100581.13;;;10.81;100.00
66273;BME280;58450;52.150;4.466;2022-11-15T05:22:54;100583.41;;;10.84;100.00
66273;BME280;58450;52.150;4.466;2022-11-15T05:25:22;100589.66;;;10.84;100.00
66273;BME280;58450;52.150;4.466;2022-11-15T05:27:51;100581.31;;;10.79;100.00
66273;BME280;58450;52.150;4.466;2022-11-15T05:30:19;100589.78;;;10.76;100.00
66273;BME280;58450;52.150;4.466;2022-11-15T05:32:47;100592.03;;;10.72;100.00
66273;BME280;58450;52.150;4.466;2022-11-15T05:35:20;100599.16;;;10.80;100.00
66273;BME280;58450;52.150;4.466;2022-11-15T05:37:56;100600.31;;;10.71;100.00
66273;BME280;58450;52.150;4.466;2022-11-15T05:40:24;100597.47;;;10.79;100.00
66273;BME280;58450;52.150;4.466;2022-11-15T05:42:54;100597.47;;;10.79;100.00
66273;BME280;58450;52.150;4.466;2022-11-15T05:45:22;100599.53;;;10.77;100.00
66273;BME280;58450;52.150;4.466;2022-11-15T05:47:50;100591.63;;;10.75;100.00
66273;BME280;58450;52.150;4.466;2022-11-15T05:50:19;100585.47;;;10.82;100.00
66273;BME280;58450;52.150;4.466;2022-11-15T05:52:47;100604.28;;;10.75;100.00
66273;BME280;58450;52.150;4.466;2022-11-15T05:55:15;100609.84;;;10.73;100.00
66273;BME280;58450;52.150;4.466;2022-11-15T05:57:42;100595.19;;;10.76;100.00
66273;BME280;58450;52.150;4.466;2022-11-15T06:00:13;100591.63;;;10.75;100.00
66273;BME280;58450;52.150;4.466;2022-11-15T06:02:41;100593.38;;;10.61;100.00
66273;BME280;58450;52.150;4.466;2022-11-15T06:05:08;100599.81;;;10.60;100.00
66273;BME280;58450;52.150;4.466;2022-11-15T06:07:36;100608.25;;;10.57;100.00
66273;BME280;58450;52.150;4.466;2022-11-15T06:10:04;100610.94;;;10.57;100.00
66273;BME280;58450;52.150;4.466;2022-11-15T06:12:32;100604.38;;;10.60;100.00
66273;BME280;58450;52.150;4.466;2022-11-15T06:14:59;100615.03;;;10.53;100.00
66273;BME280;58450;52.150;4.466;2022-11-15T06:17:28;100612.75;;;10.50;100.00
66273;BME280;58450;52.150;4.466;2022-11-15T06:19:56;100612.47;;;10.45;100.00
66273;BME280;58450;52.150;4.466;2022-11-15T06:22:23;100601.47;;;10.40;100.00
66273;BME280;58450;52.150;4.466;2022-11-15T06:24:51;100600.78;;;10.38;100.00
66273;BME280;58450;52.150;4.466;2022-11-15T06:27:18;100611.28;;;10.32;100.00
66273;BME280;58450;52.150;4.466;2022-11-15T06:29:46;100600.91;;;10.29;100.00
66273;BME280;58450;52.150;4.466;2022-11-15T06:32:13;100607.97;;;10.30;100.00
66273;BME280;58450;52.150;4.466;2022-11-15T06:34:42;100600.28;;;10.27;100.00
66273;BME280;58450;52.150;4.466;2022-11-15T06:37:09;100586.81;;;10.27;100.00
66273;BME280;58450;52.150;4.466;2022-11-15T06:39:37;100601.50;;;10.25;100.00
66273;BME280;58450;52.150;4.466;2022-11-15T06:42:04;100600.91;;;10.29;100.00
66273;BME280;58450;52.150;4.466;2022-11-15T06:44:32;100612.38;;;10.16;100.00
66273;BME280;58450;52.150;4.466;2022-11-15T06:46:59;100620.88;;;10.20;100.00
66273;BME280;58450;52.150;4.466;2022-11-15T06:49:27;100618.41;;;10.18;100.00
66273;BME280;58450;52.150;4.466;2022-11-15T06:51:55;100622.53;;;10.21;100.00
66273;BME280;58450;52.150;4.466;2022-11-15T06:54:23;100630.81;;;10.19;100.00
66273;BME280;58450;52.150;4.466;2022-11-15T06:56:50;100632.22;;;10.15;100.00
66273;BME280;58450;52.150;4.466;2022-11-15T06:59:18;100631.78;;;10.12;100.00
66273;BME280;58450;52.150;4.466;2022-11-15T07:01:45;100627.16;;;10.05;100.00
66273;BME280;58450;52.150;4.466;2022-11-15T07:04:13;100630.41;;;10.01;100.00
66273;BME280;58450;52.150;4.466;2022-11-15T07:06:40;100621.50;;;10.00;100.00
66273;BME280;58450;52.150;4.466;2022-11-15T07:09:09;100629.38;;;10.02;100.00
66273;BME280;58450;52.150;4.466;2022-11-15T07:11:36;100627.81;;;9.93;100.00
66273;BME280;58450;52.150;4.466;2022-11-15T07:14:04;100625.88;;;10.01;100.00
66273;BME280;58450;52.150;4.466;2022-11-15T07:16:31;100633.34;;;10.06;100.00
66273;BME280;58450;52.150;4.466;2022-11-15T07:18:59;100626.50;;;10.03;100.00
66273;BME280;58450;52.150;4.466;2022-11-15T07:21:27;100627.53;;;10.02;100.00
66273;BME280;58450;52.150;4.466;2022-11-15T07:23:54;100624.47;;;10.05;100.00
66273;BME280;58450;52.150;4.466;2022-11-15T07:26:23;100623.63;;;10.05;100.00
66273;BME280;58450;52.150;4.466;2022-11-15T07:28:51;100627.34;;;10.04;100.00
66273;BME280;58450;52.150;4.466;2022-11-15T07:31:18;100610.66;;;10.09;100.00
66273;BME280;58450;52.150;4.466;2022-11-15T07:33:46;100619.34;;;10.11;100.00
66273;BME280;58450;52.150;4.466;2022-11-15T07:36:13;100620.00;;;10.13;100.00
66273;BME280;58450;52.150;4.466;2022-11-15T07:38:40;100616.91;;;10.16;100.00
66273;BME280;58450;52.150;4.466;2022-11-15T07:41:08;100622.75;;;10.19;100.00
66273;BME280;58450;52.150;4.466;2022-11-15T07:43:37;100621.25;;;10.17;100.00
66273;BME280;58450;52.150;4.466;2022-11-15T07:46:05;100617.81;;;10.23;100.00
66273;BME280;58450;52.150;4.466;2022-11-15T07:48:35;100606.13;;;10.31;100.00
66273;BME280;58450;52.150;4.466;2022-11-15T07:51:03;100607.63;;;10.18;100.00
66273;BME280;58450;52.150;4.466;2022-11-15T07:53:30;100605.38;;;10.22;100.00
66273;BME280;58450;52.150;4.466;2022-11-15T07:55:58;100602.78;;;10.29;100.00
66273;BME280;58450;52.150;4.466;2022-11-15T07:58:25;100596.13;;;10.25;100.00
66273;BME280;58450;52.150;4.466;2022-11-15T08:00:54;100601.13;;;10.28;100.00
66273;BME280;58450;52.150;4.466;2022-11-15T08:03:21;100589.97;;;10.31;100.00
66273;BME280;58450;52.150;4.466;2022-11-15T08:05:50;100593.66;;;10.45;100.00
66273;BME280;58450;52.150;4.466;2022-11-15T08:08:18;100592.59;;;10.89;100.00
66273;BME280;58450;52.150;4.466;2022-11-15T08:10:46;100591.31;;;11.14;100.00
66273;BME280;58450;52.150;4.466;2022-11-15T08:13:14;100593.88;;;11.29;100.00
66273;BME280;58450;52.150;4.466;2022-11-15T08:15:41;100595.63;;;11.92;100.00
66273;BME280;58450;52.150;4.466;2022-11-15T08:18:13;100585.81;;;12.46;100.00
66273;BME280;58450;52.150;4.466;2022-11-15T08:20:43;100584.06;;;13.39;100.00
66273;BME280;58450;52.150;4.466;2022-11-15T08:23:11;100571.72;;;14.09;100.00
66273;BME280;58450;52.150;4.466;2022-11-15T08:25:39;100565.75;;;14.32;100.00
66273;BME280;58450;52.150;4.466;2022-11-15T08:28:08;100565.19;;;14.81;100.00
66273;BME280;58450;52.150;4.466;2022-11-15T08:30:38;100564.91;;;14.89;100.00
66273;BME280;58450;52.150;4.466;2022-11-15T08:33:12;100557.31;;;14.47;100.00
66273;BME280;58450;52.150;4.466;2022-11-15T08:35:41;100559.06;;;14.03;100.00
66273;BME280;58450;52.150;4.466;2022-11-15T08:38:10;100554.50;;;13.65;100.00
66273;BME280;58450;52.150;4.466;2022-11-15T08:40:38;100559.47;;;13.68;100.00
66273;BME280;58450;52.150;4.466;2022-11-15T08:43:05;100560.09;;;13.63;100.00
66273;BME280;58450;52.150;4.466;2022-11-15T08:45:34;100547.81;;;13.67;100.00
66273;BME280;58450;52.150;4.466;2022-11-15T08:48:02;100550.69;;;13.00;100.00
66273;BME280;58450;52.150;4.466;2022-11-15T08:50:31;100554.22;;;13.00;100.00
66273;BME280;58450;52.150;4.466;2022-11-15T08:53:04;100548.66;;;12.48;100.00
66273;BME280;58450;52.150;4.466;2022-11-15T08:55:32;100550.94;;;12.24;100.00
66273;BME280;58450;52.150;4.466;2022-11-15T08:58:04;100550.06;;;12.10;100.00
66273;BME280;58450;52.150;4.466;2022-11-15T09:00:32;100548.81;;;12.00;100.00
66273;BME280;58450;52.150;4.466;2022-11-15T09:03:03;100554.56;;;11.96;100.00
66273;BME280;58450;52.150;4.466;2022-11-15T09:05:35;100554.97;;;11.87;100.00
66273;BME280;58450;52.150;4.466;2022-11-15T09:08:04;100559.50;;;11.79;100.00
66273;BME280;58450;52.150;4.466;2022-11-15T09:10:31;100560.72;;;11.70;100.00
66273;BME280;58450;52.150;4.466;2022-11-15T09:12:59;100563.81;;;11.74;100.00
66273;BME280;58450;52.150;4.466;2022-11-15T09:15:26;100560.72;;;11.77;100.00
66273;BME280;58450;52.150;4.466;2022-11-15T09:17:57;100558.31;;;11.95;100.00
66273;BME280;58450;52.150;4.466;2022-11-15T09:20:25;100558.56;;;12.01;100.00
66273;BME280;58450;52.150;4.466;2022-11-15T09:22:54;100558.16;;;12.04;100.00
66273;BME280;58450;52.150;4.466;2022-11-15T09:25:21;100552.06;;;11.88;100.00
66273;BME280;58450;52.150;4.466;2022-11-15T09:27:49;100556.19;;;11.84;100.00
66273;BME280;58450;52.150;4.466;2022-11-15T09:30:16;100557.66;;;11.87;100.00
66273;BME280;58450;52.150;4.466;2022-11-15T09:32:43;100549.81;;;11.92;100.00
66273;BME280;58450;52.150;4.466;2022-11-15T09:35:11;100563.06;;;11.87;100.00
66273;BME280;58450;52.150;4.466;2022-11-15T09:37:38;100567.56;;;11.73;100.00
66273;BME280;58450;52.150;4.466;2022-11-15T09:40:09;100559.63;;;11.58;100.00
66273;BME280;58450;52.150;4.466;2022-11-15T09:42:49;100560.13;;;11.88;100.00
66273;BME280;58450;52.150;4.466;2022-11-15T09:45:33;100547.75;;;12.01;100.00
66273;BME280;58450;52.150;4.466;2022-11-15T09:48:25;100552.56;;;12.12;100.00
66273;BME280;58450;52.150;4.466;2022-11-15T09:51:11;100551.34;;;12.21;100.00
66273;BME280;58450;52.150;4.466;2022-11-15T09:53:48;100540.66;;;11.93;100.00
66273;BME280;58450;52.150;4.466;2022-11-15T09:56:27;100537.13;;;11.92;100.00
66273;BME280;58450;52.150;4.466;2022-11-15T09:59:08;100532.63;;;12.00;100.00
66273;BME280;58450;52.150;4.466;2022-11-15T10:01:55;100521.03;;;12.39;100.00
66273;BME280;58450;52.150;4.466;2022-11-15T10:04:31;100523.31;;;12.29;100.00
66273;BME280;58450;52.150;4.466;2022-11-15T10:07:04;100511.06;;;12.67;100.00
66273;BME280;58450;52.150;4.466;2022-11-15T10:09:45;100496.03;;;13.11;100.00
66273;BME280;58450;52.150;4.466;2022-11-15T10:12:17;100483.56;;;14.27;100.00
66273;BME280;58450;52.150;4.466;2022-11-15T10:14:46;100487.16;;;14.90;100.00
66273;BME280;58450;52.150;4.466;2022-11-15T10:17:34;100497.91;;;15.34;100.00
66273;BME280;58450;52.150;4.466;2022-11-15T10:20:25;100474.97;;;15.98;100.00
66273;BME280;58450;52.150;4.466;2022-11-15T10:22:55;100486.94;;;16.44;100.00
66273;BME280;58450;52.150;4.466;2022-11-15T10:25:28;100481.31;;;17.34;100.00
66273;BME280;58450;52.150;4.466;2022-11-15T10:28:01;100481.28;;;16.46;100.00
66273;BME280;58450;52.150;4.466;2022-11-15T10:30:38;100482.69;;;17.49;100.00
66273;BME280;58450;52.150;4.466;2022-11-15T10:33:23;100477.59;;;17.52;100.00
66273;BME280;58450;52.150;4.466;2022-11-15T10:36:21;100468.41;;;17.70;100.00
66273;BME280;58450;52.150;4.466;2022-11-15T10:38:54;100461.38;;;17.28;100.00
66273;BME280;58450;52.150;4.466;2022-11-15T10:41:35;100455.31;;;16.74;100.00
66273;BME280;58450;52.150;4.466;2022-11-15T10:44:29;100444.44;;;16.62;100.00
66273;BME280;58450;52.150;4.466;2022-11-15T10:47:07;100448.94;;;16.20;100.00
66273;BME280;58450;52.150;4.466;2022-11-15T10:49:55;100437.81;;;16.10;100.00
66273;BME280;58450;52.150;4.466;2022-11-15T10:52:24;100440.78;;;15.35;100.00
66273;BME280;58450;52.150;4.466;2022-11-15T10:54:55;100439.66;;;15.06;100.00
66273;BME280;58450;52.150;4.466;2022-11-15T10:57:27;100446.44;;;14.34;100.00
66273;BME280;58450;52.150;4.466;2022-11-15T11:00:00;100447.19;;;14.41;100.00
66273;BME280;58450;52.150;4.466;2022-11-15T11:02:35;100444.81;;;14.01;100.00
66273;BME280;58450;52.150;4.466;2022-11-15T11:05:12;100438.22;;;13.65;100.00
66273;BME280;58450;52.150;4.466;2022-11-15T11:07:59;100435.63;;;13.38;100.00
66273;BME280;58450;52.150;4.466;2022-11-15T11:10:28;100436.97;;;13.22;100.00
66273;BME280;58450;52.150;4.466;2022-11-15T11:13:12;100445.31;;;13.13;100.00
66273;BME280;58450;52.150;4.466;2022-11-15T11:15:44;100427.50;;;12.92;100.00
66273;BME280;58450;52.150;4.466;2022-11-15T11:18:22;100428.97;;;12.88;100.00
66273;BME280;58450;52.150;4.466;2022-11-15T11:20:58;100427.03;;;13.09;100.00
66273;BME280;58450;52.150;4.466;2022-11-15T11:23:42;100412.22;;;13.25;100.00
66273;BME280;58450;52.150;4.466;2022-11-15T11:26:38;100399.69;;;13.30;100.00
66273;BME280;58450;52.150;4.466;2022-11-15T11:29:21;100387.97;;;13.05;100.00
66273;BME280;58450;52.150;4.466;2022-11-15T11:32:08;100389.19;;;13.15;100.00
66273;BME280;58450;52.150;4.466;2022-11-15T11:34:53;100379.00;;;13.18;100.00
66273;BME280;58450;52.150;4.466;2022-11-15T11:37:32;100377.91;;;13.25;100.00
66273;BME280;58450;52.150;4.466;2022-11-15T11:40:16;100372.50;;;13.25;100.00
66273;BME280;58450;52.150;4.466;2022-11-15T11:42:58;100376.38;;;13.43;100.00
66273;BME280;58450;52.150;4.466;2022-11-15T11:46:09;100376.44;;;13.29;100.00
66273;BME280;58450;52.150;4.466;2022-11-15T11:48:48;100375.69;;;13.15;100.00
66273;BME280;58450;52.150;4.466;2022-11-15T11:51:23;100367.63;;;13.41;100.00
66273;BME280;58450;52.150;4.466;2022-11-15T11:53:58;100361.50;;;13.20;100.00
66273;BME280;58450;52.150;4.466;2022-11-15T11:56:35;100360.09;;;13.11;100.00
66273;BME280;58450;52.150;4.466;2022-11-15T11:59:12;100347.31;;;13.32;100.00
66273;BME280;58450;52.150;4.466;2022-11-15T12:01:50;100340.59;;;13.41;100.00
66273;BME280;58450;52.150;4.466;2022-11-15T12:04:24;100342.09;;;13.37;100.00
66273;BME280;58450;52.150;4.466;2022-11-15T12:06:59;100332.34;;;13.29;100.00
66273;BME280;58450;52.150;4.466;2022-11-15T12:09:32;100335.84;;;13.43;100.00
66273;BME280;58450;52.150;4.466;2022-11-15T12:12:08;100333.47;;;13.53;100.00
66273;BME280;58450;52.150;4.466;2022-11-15T12:14:45;100317.59;;;13.32;100.00
66273;BME280;58450;52.150;4.466;2022-11-15T12:17:17;100310.47;;;13.37;100.00
66273;BME280;58450;52.150;4.466;2022-11-15T12:19:56;100308.31;;;13.53;100.00
66273;BME280;58450;52.150;4.466;2022-11-15T12:22:26;100309.66;;;13.37;100.00
66273;BME280;58450;52.150;4.466;2022-11-15T12:25:03;100313.84;;;13.33;100.00
66273;BME280;58450;52.150;4.466;2022-11-15T12:27:38;100306.31;;;13.41;100.00
66273;BME280;58450;52.150;4.466;2022-11-15T12:30:12;100290.38;;;13.58;100.00
66273;BME280;58450;52.150;4.466;2022-11-15T12:32:50;100282.75;;;13.49;100.00
66273;BME280;58450;52.150;4.466;2022-11-15T12:35:25;100274.16;;;13.58;100.00
66273;BME280;58450;52.150;4.466;2022-11-15T12:37:56;100275.34;;;13.88;100.00
66273;BME280;58450;52.150;4.466;2022-11-15T12:40:35;100267.47;;;14.05;100.00
66273;BME280;58450;52.150;4.466;2022-11-15T12:43:36;100268.69;;;14.46;100.00
66273;BME280;58450;52.150;4.466;2022-11-15T12:46:11;100252.66;;;14.45;100.00
66273;BME280;58450;52.150;4.466;2022-11-15T12:48:54;100260.13;;;14.31;100.00
66273;BME280;58450;52.150;4.466;2022-11-15T12:54:57;100242.41;;;14.47;100.00
66273;BME280;58450;52.150;4.466;2022-11-15T12:57:36;100248.38;;;14.18;100.00
66273;BME280;58450;52.150;4.466;2022-11-15T13:03:24;100232.56;;;14.53;100.00
66273;BME280;58450;52.150;4.466;2022-11-15T13:05:58;100226.59;;;14.81;100.00
66273;BME280;58450;52.150;4.466;2022-11-15T13:08:47;100232.16;;;14.98;100.00
66273;BME280;58450;52.150;4.466;2022-11-15T13:14:43;100216.53;;;14.70;100.00
66273;BME280;58450;52.150;4.466;2022-11-15T13:17:24;100202.91;;;14.58;100.00
66273;BME280;58450;52.150;4.466;2022-11-15T13:19:59;100202.97;;;14.39;100.00
66273;BME280;58450;52.150;4.466;2022-11-15T13:22:48;100205.19;;;14.12;100.00
66273;BME280;58450;52.150;4.466;2022-11-15T13:28:42;100207.84;;;13.56;100.00